首页
METAR-TAF:

METAR-TAF

机场 :

布赖顿, 英格兰

纬度: 50-50N, 经度: 000-17W, 海拔: 2米

当前天气观测

该预报发布于48分钟前的15:50 UTC
风速15节,风向西南,有时为25节阵风
温度 17°C
湿度 88%
气压 998 hPa
能见度10公里或以上
散云层高于1400英尺

METAR: EGKA 231550Z 23015G25KT 9999 SCT014 17/15 Q0998 RESHRA

时间: 17:38 (16:38 UTC)

预报

该预报发布于31分钟前的16:07 UTC
预报有效从23日的 16点(UTC)到 23日的 19点(UTC)
风速17节,风向西南
能见度10公里或以上
少量云层高于1000英尺
散云层高于2000英尺
短暂存在
从 23日的 16点(UTC)到 23日的 19点(UTC)
能見度: 6000
多云层高于1200英尺
雨, 阵雨
几率 30% :
短暂存在
从 23日的 16点(UTC)到 23日的 18点(UTC)
能見度: 4000
多云层高于800英尺
大阵雨

TAF: EGKA 231607Z 2316/2319 22017KT 9999 FEW010 SCT020 TEMPO 2316/2319 6000 RA SHRA BKN012 PROB30 TEMPO 2316/2318 4000 +SHRA BKN008

超过4000个机场的气象观测和天气预报(METAR&TAF报告)。

可查询的气象台以黄色和红色小点在地图上表示。

将鼠标移到小点上方,可查看气象台名称。

然后点击查看天气观测和预报。

如需切换地图:点击带黑十字的绿色按钮放大地图;点击带横线的绿色按钮缩小地图;或者点击绿色箭头查看邻近地区的地图。


METAR-TAF: